createdAt,value
2023-01-31T07:02:03.081Z,25.00
2023-01-31T07:03:03.145Z,25.00
2023-01-31T07:04:02.947Z,25.00
2023-01-31T07:05:02.988Z,25.00
2023-01-31T07:06:02.874Z,25.00
2023-01-31T07:07:02.851Z,70.58
2023-01-31T07:08:02.784Z,238.31
2023-01-31T07:09:02.831Z,430.97
2023-01-31T07:10:02.681Z,151.79
2023-01-31T07:11:02.736Z,0.00
2023-01-31T07:12:02.692Z,0.00
2023-01-31T07:13:02.621Z,7.29
2023-01-31T07:14:02.535Z,0.00
2023-01-31T07:15:02.444Z,0.00
2023-01-31T07:16:02.423Z,0.00
2023-01-31T07:17:02.320Z,0.00
2023-01-31T07:18:02.453Z,0.00
2023-01-31T07:19:02.229Z,0.00
2023-01-31T07:20:02.261Z,0.00
2023-01-31T07:21:02.221Z,0.00
2023-01-31T07:22:02.054Z,0.00
2023-01-31T07:23:02.797Z,0.00
2023-01-31T07:24:02.098Z,0.00
2023-01-31T07:25:01.994Z,0.00
2023-01-31T07:26:01.892Z,0.00
2023-01-31T07:27:01.787Z,0.00
2023-01-31T07:28:02.681Z,0.00
2023-01-31T07:29:01.698Z,3.12
2023-01-31T07:30:01.601Z,8.77
2023-01-31T07:31:01.602Z,8.97
2023-01-31T07:32:01.624Z,10.08
2023-01-31T07:33:01.527Z,11.47
2023-01-31T07:34:01.423Z,10.30
2023-01-31T07:35:01.327Z,4.99
2023-01-31T07:36:01.235Z,14.34
2023-01-31T07:37:01.178Z,26.20
2023-01-31T07:38:01.250Z,25.00
2023-01-31T07:39:01.126Z,24.20
2023-01-31T07:40:01.030Z,39.84
2023-01-31T07:41:00.987Z,51.44
2023-01-31T07:42:00.994Z,47.84
2023-01-31T07:43:00.866Z,35.62
2023-01-31T07:44:00.896Z,29.84
2023-01-31T07:45:13.075Z,29.76
2023-01-31T07:46:01.729Z,29.76
2023-01-31T07:47:00.642Z,29.91
2023-01-31T07:48:00.585Z,29.93
2023-01-31T07:49:00.581Z,29.77
2023-01-31T07:50:00.500Z,29.66
2023-01-31T07:51:00.421Z,31.01
2023-01-31T07:52:00.395Z,31.15
2023-01-31T07:53:00.288Z,31.79
2023-01-31T07:54:00.263Z,31.53
2023-01-31T07:55:00.230Z,31.79
2023-01-31T07:56:00.193Z,31.83
2023-01-31T07:57:00.769Z,32.59
2023-01-31T07:58:00.032Z,33.21
2023-01-31T07:58:59.966Z,32.97
2023-01-31T08:00:00.576Z,33.23
2023-01-31T08:00:59.835Z,32.73
2023-01-31T08:01:59.835Z,31.96
2023-01-31T08:02:59.729Z,33.84
2023-01-31T08:04:10.652Z,34.28
2023-01-31T08:05:00.598Z,34.36
2023-01-31T08:05:59.565Z,34.08
2023-01-31T08:06:59.461Z,33.32
2023-01-31T08:07:59.407Z,34.15
2023-01-31T08:08:59.372Z,33.12
2023-01-31T08:09:59.278Z,32.67
2023-01-31T08:10:59.233Z,32.97
2023-01-31T08:11:59.198Z,34.45
2023-01-31T08:12:59.202Z,32.06
2023-01-31T08:13:59.029Z,32.09
2023-01-31T08:14:58.938Z,31.68
2023-01-31T08:15:58.924Z,30.65
2023-01-31T08:16:58.974Z,33.63
2023-01-31T08:17:58.811Z,32.99
2023-01-31T08:18:58.662Z,32.48
2023-01-31T08:19:58.598Z,31.20
2023-01-31T08:20:59.258Z,32.84
2023-01-31T08:21:58.526Z,32.30
2023-01-31T08:22:58.513Z,32.46
2023-01-31T08:23:58.365Z,32.85
2023-01-31T08:25:03.309Z,32.44
2023-01-31T08:25:58.456Z,32.52
2023-01-31T08:26:58.265Z,31.34
2023-01-31T08:27:58.269Z,32.02
2023-01-31T08:28:58.079Z,30.91
2023-01-31T08:29:58.079Z,31.14
2023-01-31T08:31:08.105Z,32.25
2023-01-31T08:31:58.981Z,32.33
2023-01-31T08:32:57.894Z,32.36
2023-01-31T08:33:57.736Z,32.49
2023-01-31T08:34:57.842Z,32.45
2023-01-31T08:35:57.597Z,32.16
2023-01-31T08:36:57.558Z,32.52
2023-01-31T08:38:10.396Z,32.51
2023-01-31T08:38:58.403Z,32.59
2023-01-31T08:39:57.320Z,32.65
2023-01-31T08:40:57.429Z,32.22
2023-01-31T08:41:57.788Z,31.70
2023-01-31T08:42:57.247Z,31.07
2023-01-31T08:43:58.479Z,30.48
2023-01-31T08:44:58.173Z,31.88
2023-01-31T08:45:57.882Z,30.92
2023-01-31T08:46:58.129Z,30.09
2023-01-31T08:47:57.422Z,30.26
2023-01-31T08:48:56.804Z,31.05
2023-01-31T08:49:56.881Z,31.10
2023-01-31T08:50:56.813Z,30.75
2023-01-31T08:51:56.920Z,31.28
2023-01-31T08:52:57.315Z,30.11
2023-01-31T08:53:56.269Z,28.35
2023-01-31T08:54:56.287Z,29.50
2023-01-31T08:55:56.167Z,28.30
2023-01-31T08:56:56.067Z,25.41
2023-01-31T08:58:00.069Z,26.26
2023-01-31T08:58:56.067Z,26.35
2023-01-31T08:59:55.922Z,26.44
2023-01-31T09:00:55.846Z,26.97
2023-01-31T09:01:56.069Z,26.94
2023-01-31T09:02:55.931Z,23.16
2023-01-31T09:03:55.752Z,26.86
2023-01-31T09:04:55.511Z,27.50
2023-01-31T09:05:57.865Z,27.14
2023-01-31T09:06:55.581Z,27.47
2023-01-31T09:07:55.368Z,27.14
2023-01-31T09:08:55.418Z,27.14
2023-01-31T09:09:55.274Z,25.96
2023-01-31T09:10:55.205Z,26.20
2023-01-31T09:11:55.130Z,26.98
2023-01-31T09:12:55.127Z,26.05
2023-01-31T09:13:54.972Z,26.34
2023-01-31T09:14:54.881Z,25.99
2023-01-31T09:15:54.783Z,25.87
2023-01-31T09:16:54.771Z,27.21
2023-01-31T09:17:54.667Z,26.42
2023-01-31T09:18:54.546Z,25.28
2023-01-31T09:19:54.531Z,27.02
2023-01-31T09:20:54.489Z,25.25
2023-01-31T09:21:54.529Z,25.00
2023-01-31T09:22:56.903Z,26.60
2023-01-31T09:23:54.233Z,25.79
2023-01-31T09:24:54.363Z,25.00
2023-01-31T09:25:54.066Z,20.30
2023-01-31T09:26:54.930Z,25.43
2023-01-31T09:27:53.915Z,28.25
2023-01-31T09:28:53.838Z,28.21
2023-01-31T09:29:53.746Z,25.56
2023-01-31T09:30:53.729Z,23.56
2023-01-31T09:31:54.124Z,22.91
2023-01-31T09:32:53.615Z,24.81
2023-01-31T09:33:54.344Z,31.54
2023-01-31T09:34:53.408Z,35.85
2023-01-31T09:35:53.302Z,39.09
2023-01-31T09:36:53.314Z,31.45
2023-01-31T09:37:53.179Z,27.46
2023-01-31T09:38:53.138Z,27.51
2023-01-31T09:39:53.109Z,23.96
2023-01-31T09:40:52.928Z,19.43
2023-01-31T09:41:52.847Z,15.21
2023-01-31T09:42:52.808Z,21.35
2023-01-31T09:43:52.932Z,23.04
2023-01-31T09:44:52.645Z,26.35
2023-01-31T09:45:52.527Z,18.35
2023-01-31T09:46:52.577Z,28.18
2023-01-31T09:47:52.471Z,34.77
2023-01-31T09:48:52.313Z,33.58
2023-01-31T09:49:52.432Z,35.64
2023-01-31T09:50:52.179Z,35.43
2023-01-31T09:51:52.136Z,39.47
2023-01-31T09:52:52.465Z,43.63
2023-01-31T09:53:51.943Z,38.42
2023-01-31T09:54:51.842Z,34.73
2023-01-31T09:55:51.783Z,36.03
2023-01-31T09:56:51.823Z,39.82
2023-01-31T09:57:53.020Z,39.76
2023-01-31T09:58:52.386Z,32.27
2023-01-31T09:59:51.581Z,30.07
2023-01-31T10:00:51.497Z,35.09
2023-01-31T10:01:51.364Z,34.07
2023-01-31T10:02:51.446Z,35.65
2023-01-31T10:03:51.215Z,37.60
2023-01-31T10:04:51.137Z,42.88
2023-01-31T10:05:51.047Z,43.65
2023-01-31T10:06:51.807Z,40.37
2023-01-31T10:07:51.249Z,42.80
2023-01-31T10:08:50.837Z,45.44
2023-01-31T10:09:51.856Z,45.97
2023-01-31T10:10:50.686Z,45.43
2023-01-31T10:11:51.354Z,42.14
2023-01-31T10:12:50.875Z,44.75
2023-01-31T10:13:50.498Z,46.84
2023-01-31T10:14:50.469Z,47.99
2023-01-31T10:15:50.310Z,44.69
2023-01-31T10:16:50.275Z,41.76
2023-01-31T10:17:50.332Z,45.81
2023-01-31T10:18:50.064Z,46.04
2023-01-31T10:19:50.296Z,55.03
2023-01-31T10:20:49.868Z,54.66
2023-01-31T10:21:49.812Z,45.12
2023-01-31T10:22:50.003Z,48.04
2023-01-31T10:23:50.356Z,44.26
2023-01-31T10:24:49.579Z,50.36
2023-01-31T10:25:49.493Z,57.25
2023-01-31T10:26:49.497Z,56.37
2023-01-31T10:27:49.354Z,56.82
2023-01-31T10:28:49.233Z,53.16
2023-01-31T10:29:49.142Z,53.57
2023-01-31T10:30:49.117Z,51.78
2023-01-31T10:31:49.142Z,56.40
2023-01-31T10:32:48.960Z,59.64
2023-01-31T10:33:49.038Z,60.88
2023-01-31T10:34:48.772Z,63.70
2023-01-31T10:35:48.735Z,59.81
2023-01-31T10:36:48.637Z,61.07
2023-01-31T10:37:48.572Z,61.30
2023-01-31T10:38:48.481Z,64.15
2023-01-31T10:39:48.469Z,46.37
2023-01-31T10:40:48.310Z,54.94
2023-01-31T10:41:48.254Z,52.11
2023-01-31T10:42:48.172Z,46.05
2023-01-31T10:43:48.100Z,31.40
2023-01-31T10:44:48.082Z,20.94
2023-01-31T10:45:47.964Z,0.88
2023-01-31T10:46:47.802Z,0.00
2023-01-31T10:47:47.783Z,0.00
2023-01-31T10:48:48.364Z,0.00
2023-01-31T10:49:47.613Z,0.00
2023-01-31T10:50:47.606Z,0.00
2023-01-31T10:51:47.498Z,0.00
2023-01-31T10:52:49.724Z,0.00
2023-01-31T10:53:47.590Z,0.00
2023-01-31T10:54:47.415Z,3.75
2023-01-31T10:55:47.352Z,12.65
2023-01-31T10:56:47.229Z,21.90
2023-01-31T10:57:47.177Z,23.57
2023-01-31T10:58:48.377Z,25.19
2023-01-31T10:59:47.671Z,24.28
2023-01-31T11:00:47.075Z,27.33
2023-01-31T11:01:47.006Z,25.51
2023-01-31T11:02:46.859Z,30.74
2023-01-31T11:03:46.894Z,24.84
2023-01-31T11:04:46.770Z,27.54
2023-01-31T11:05:46.889Z,28.76
2023-01-31T11:06:46.684Z,33.02
2023-01-31T11:07:46.582Z,33.31
2023-01-31T11:08:46.586Z,30.56
2023-01-31T11:09:46.496Z,27.63
2023-01-31T11:10:46.500Z,27.65
2023-01-31T11:11:46.419Z,32.53
2023-01-31T11:12:46.337Z,28.67
2023-01-31T11:13:46.332Z,26.02
2023-01-31T11:14:46.254Z,34.79
2023-01-31T11:15:46.221Z,34.91
2023-01-31T11:16:46.238Z,37.40
2023-01-31T11:17:46.244Z,41.23
2023-01-31T11:18:46.179Z,35.86
2023-01-31T11:19:46.461Z,39.13
2023-01-31T11:20:45.971Z,39.10
2023-01-31T11:21:45.966Z,42.48
2023-01-31T11:22:45.893Z,45.18
2023-01-31T11:23:45.847Z,37.89
2023-01-31T11:24:45.819Z,35.70
2023-01-31T11:25:45.834Z,34.08
2023-01-31T11:26:45.737Z,37.82
2023-01-31T11:27:45.678Z,30.79
2023-01-31T11:28:45.637Z,27.98
2023-01-31T11:29:45.703Z,32.35
2023-01-31T11:30:45.632Z,37.20
2023-01-31T11:31:45.745Z,45.18
2023-01-31T11:32:45.519Z,49.06
2023-01-31T11:33:45.467Z,59.83
2023-01-31T11:34:45.423Z,61.06
2023-01-31T11:35:45.355Z,61.15
2023-01-31T11:36:45.325Z,62.17
2023-01-31T11:37:45.340Z,65.54
2023-01-31T11:38:45.241Z,71.96
2023-01-31T11:39:45.296Z,84.67
2023-01-31T11:40:45.463Z,86.84
2023-01-31T11:41:45.173Z,90.59
2023-01-31T11:42:45.021Z,93.10
2023-01-31T11:43:45.053Z,97.09
2023-01-31T11:44:44.892Z,99.47
2023-01-31T11:45:44.813Z,99.01
2023-01-31T11:46:44.864Z,99.30
2023-01-31T11:47:44.808Z,102.04
2023-01-31T11:48:44.701Z,102.50
2023-01-31T11:49:44.578Z,104.84
2023-01-31T11:50:44.620Z,92.95
2023-01-31T11:51:44.980Z,93.12
2023-01-31T11:52:44.424Z,93.87
2023-01-31T11:53:44.456Z,95.88
2023-01-31T11:54:44.348Z,99.42
2023-01-31T11:55:44.283Z,102.80
2023-01-31T11:56:44.232Z,99.52
2023-01-31T11:57:44.198Z,97.90
2023-01-31T11:58:44.174Z,101.43
2023-01-31T11:59:47.365Z,99.85
2023-01-31T12:00:43.991Z,102.98
2023-01-31T12:01:43.958Z,107.34
2023-01-31T12:02:43.942Z,106.96
2023-01-31T12:03:59.037Z,104.24
2023-01-31T12:04:45.452Z,104.32
2023-01-31T12:05:44.043Z,104.66
2023-01-31T12:06:46.402Z,102.27
2023-01-31T12:07:43.847Z,105.59
2023-01-31T12:08:43.571Z,105.02
2023-01-31T12:09:43.506Z,107.32
2023-01-31T12:10:43.454Z,106.24
2023-01-31T12:11:43.427Z,104.57
2023-01-31T12:12:45.416Z,106.04
2023-01-31T12:13:44.775Z,102.03
2023-01-31T12:14:43.231Z,103.50
2023-01-31T12:15:43.166Z,104.93
2023-01-31T12:16:43.207Z,101.04
2023-01-31T12:17:43.049Z,103.41
2023-01-31T12:18:42.973Z,94.13
2023-01-31T12:19:42.939Z,96.64
2023-01-31T12:20:42.848Z,100.00
2023-01-31T12:21:42.779Z,96.31
2023-01-31T12:22:42.760Z,97.08
2023-01-31T12:23:42.824Z,96.16
2023-01-31T12:24:42.941Z,87.42
2023-01-31T12:25:42.580Z,90.34
2023-01-31T12:26:42.628Z,92.57
2023-01-31T12:27:43.005Z,89.93
2023-01-31T12:28:42.443Z,93.72
2023-01-31T12:29:43.371Z,84.26
2023-01-31T12:30:42.338Z,96.78
2023-01-31T12:31:42.327Z,101.23
2023-01-31T12:32:42.219Z,105.23
2023-01-31T12:33:42.146Z,108.35
2023-01-31T12:34:58.234Z,112.30
2023-01-31T12:35:43.095Z,112.37
2023-01-31T12:36:41.971Z,112.83
2023-01-31T12:37:41.887Z,114.07
2023-01-31T12:38:41.852Z,116.55
2023-01-31T12:39:41.791Z,119.79
2023-01-31T12:40:41.765Z,122.61
2023-01-31T12:41:41.690Z,123.57
2023-01-31T12:42:41.603Z,125.02
2023-01-31T12:43:41.580Z,125.23
2023-01-31T12:44:41.519Z,125.76
2023-01-31T12:45:41.483Z,127.15
2023-01-31T12:46:41.498Z,127.85
2023-01-31T12:47:41.346Z,129.47
2023-01-31T12:48:41.911Z,129.43
2023-01-31T12:49:41.250Z,128.15
2023-01-31T12:50:41.189Z,136.40
2023-01-31T12:51:41.102Z,138.28
2023-01-31T12:52:41.049Z,142.26
2023-01-31T12:53:41.015Z,144.25
2023-01-31T12:54:40.962Z,146.18
2023-01-31T12:55:41.882Z,147.66
2023-01-31T12:56:40.838Z,149.77
2023-01-31T12:57:40.766Z,151.33
2023-01-31T12:58:40.671Z,152.58
2023-01-31T12:59:40.671Z,154.50
2023-01-31T13:00:40.627Z,158.44
2023-01-31T13:01:40.649Z,157.44
2023-01-31T13:02:40.531Z,161.86
2023-01-31T13:03:40.399Z,159.19
2023-01-31T13:04:40.367Z,156.47
2023-01-31T13:05:40.493Z,156.73
2023-01-31T13:06:40.317Z,157.30
2023-01-31T13:07:40.225Z,155.58
2023-01-31T13:08:41.290Z,157.34
2023-01-31T13:09:40.098Z,159.79
2023-01-31T13:10:39.992Z,160.15
2023-01-31T13:11:39.942Z,159.11
2023-01-31T13:12:39.917Z,159.15
2023-01-31T13:13:39.882Z,158.90
2023-01-31T13:14:39.749Z,158.90
2023-01-31T13:15:39.780Z,158.02
2023-01-31T13:16:39.675Z,158.83
2023-01-31T13:17:39.608Z,159.34
2023-01-31T13:18:39.572Z,158.96
2023-01-31T13:19:39.485Z,160.30
2023-01-31T13:20:39.413Z,160.03
2023-01-31T13:21:39.666Z,160.17
2023-01-31T13:22:39.289Z,160.61
2023-01-31T13:23:39.199Z,161.44
2023-01-31T13:24:39.156Z,162.22
2023-01-31T13:25:39.116Z,161.58
2023-01-31T13:26:39.162Z,163.11
2023-01-31T13:27:39.904Z,161.93
2023-01-31T13:28:38.930Z,161.72
2023-01-31T13:29:38.837Z,160.79
2023-01-31T13:30:38.856Z,160.59
2023-01-31T13:31:38.849Z,161.56
2023-01-31T13:32:38.664Z,161.57
2023-01-31T13:33:38.611Z,162.19
2023-01-31T13:34:38.542Z,162.01
2023-01-31T13:35:38.485Z,162.42
2023-01-31T13:36:38.505Z,162.69
2023-01-31T13:37:38.373Z,162.18
2023-01-31T13:38:38.285Z,163.13
2023-01-31T13:39:38.238Z,163.96
2023-01-31T13:40:38.185Z,165.25
2023-01-31T13:41:38.186Z,164.64
2023-01-31T13:42:38.084Z,165.60
2023-01-31T13:43:37.985Z,165.94
2023-01-31T13:44:38.980Z,165.85
2023-01-31T13:45:37.859Z,166.82
2023-01-31T13:46:37.917Z,166.74
2023-01-31T13:47:38.432Z,167.36
2023-01-31T13:48:37.677Z,166.37
2023-01-31T13:49:37.619Z,167.15
2023-01-31T13:50:37.642Z,168.07
2023-01-31T13:51:37.530Z,167.95
2023-01-31T13:52:37.473Z,168.05
2023-01-31T13:53:37.397Z,168.76
2023-01-31T13:54:37.311Z,168.87
2023-01-31T13:55:37.296Z,167.57
2023-01-31T13:56:37.437Z,168.45
2023-01-31T13:57:37.349Z,168.81
2023-01-31T13:58:37.244Z,168.60
2023-01-31T13:59:37.046Z,168.83
2023-01-31T14:00:37.037Z,168.76
2023-01-31T14:01:37.009Z,169.03
2023-01-31T14:02:36.953Z,169.48
2023-01-31T14:03:36.863Z,169.77
2023-01-31T14:04:39.874Z,169.32
2023-01-31T14:05:36.784Z,169.40
2023-01-31T14:06:36.611Z,169.51
2023-01-31T14:07:36.587Z,169.90
2023-01-31T14:08:36.507Z,169.85
2023-01-31T14:09:36.481Z,170.35
2023-01-31T14:10:36.397Z,170.50
2023-01-31T14:11:36.330Z,170.86
2023-01-31T14:12:36.949Z,171.35
2023-01-31T14:13:36.196Z,170.20
2023-01-31T14:14:36.979Z,170.88
2023-01-31T14:15:36.054Z,171.09
2023-01-31T14:16:36.130Z,171.06
2023-01-31T14:17:35.952Z,171.21
2023-01-31T14:18:35.924Z,171.64
2023-01-31T14:19:35.837Z,171.23
2023-01-31T14:20:35.830Z,171.52
2023-01-31T14:21:35.776Z,171.43
2023-01-31T14:22:35.700Z,171.42
2023-01-31T14:23:35.596Z,171.23
2023-01-31T14:24:35.624Z,171.21
2023-01-31T14:25:35.502Z,171.48
2023-01-31T14:26:35.511Z,171.73
2023-01-31T14:27:35.375Z,170.63
2023-01-31T14:28:35.374Z,171.43
2023-01-31T14:29:35.276Z,171.81
2023-01-31T14:30:35.228Z,171.83
2023-01-31T14:31:35.170Z,172.47
2023-01-31T14:32:35.169Z,172.24
2023-01-31T14:33:34.998Z,171.78
2023-01-31T14:34:34.939Z,172.25
2023-01-31T14:35:34.898Z,172.76
2023-01-31T14:36:34.818Z,172.58
2023-01-31T14:37:34.750Z,172.79
2023-01-31T14:38:34.687Z,172.59
2023-01-31T14:39:34.625Z,172.98
2023-01-31T14:40:34.554Z,172.19
2023-01-31T14:41:34.470Z,172.85
2023-01-31T14:42:34.452Z,172.33
2023-01-31T14:43:34.339Z,173.35
2023-01-31T14:44:34.325Z,172.61
2023-01-31T14:45:34.318Z,172.80
2023-01-31T14:46:34.160Z,172.77
2023-01-31T14:47:34.148Z,173.00
2023-01-31T14:48:34.039Z,172.12
2023-01-31T14:49:33.972Z,172.57
2023-01-31T14:50:33.918Z,172.43
2023-01-31T14:51:33.886Z,172.37
2023-01-31T14:52:33.830Z,171.45
2023-01-31T16:48:26.451Z,166.37
2023-01-31T16:49:26.434Z,166.01
2023-01-31T16:50:41.758Z,166.18
2023-01-31T16:52:26.241Z,166.25
2023-01-31T16:53:26.131Z,166.13
2023-01-31T16:54:26.096Z,166.18
2023-01-31T16:55:26.063Z,166.86
2023-01-31T16:56:25.977Z,166.12
2023-01-31T16:57:25.970Z,165.39
2023-01-31T16:58:25.879Z,165.64
2023-01-31T16:59:25.787Z,165.90
2023-01-31T17:00:25.759Z,165.74
2023-01-31T17:01:25.725Z,164.75
2023-01-31T17:02:25.677Z,164.53
2023-01-31T17:03:25.547Z,165.34
2023-01-31T17:04:25.522Z,165.00
2023-01-31T17:05:25.451Z,164.65
2023-01-31T17:06:25.391Z,165.28
2023-01-31T17:07:25.331Z,164.63
2023-01-31T17:08:25.278Z,165.62
2023-01-31T17:09:25.195Z,165.12
2023-01-31T17:10:25.166Z,164.94
2023-01-31T17:11:41.697Z,164.97
2023-01-31T17:12:26.017Z,165.00
2023-01-31T17:13:24.960Z,165.02
2023-01-31T17:14:24.945Z,164.74
2023-01-31T17:15:24.875Z,164.86
2023-01-31T17:16:24.789Z,164.40
2023-01-31T17:17:24.715Z,165.12
2023-01-31T17:18:24.683Z,164.27
2023-01-31T17:19:24.631Z,164.29
2023-01-31T17:20:24.557Z,164.27
2023-01-31T17:21:24.504Z,164.10
2023-01-31T17:22:24.422Z,163.43
2023-01-31T17:23:24.401Z,164.09
2023-01-31T17:24:24.318Z,163.71
2023-01-31T17:25:24.265Z,163.46
2023-01-31T17:26:24.320Z,163.85
2023-01-31T17:27:24.148Z,163.89
2023-01-31T17:28:24.059Z,164.06
2023-01-31T17:29:24.038Z,163.35
2023-01-31T17:30:23.989Z,163.68
2023-01-31T17:31:23.992Z,163.74
2023-01-31T17:32:23.855Z,163.76
2023-01-31T17:33:23.792Z,163.07
2023-01-31T17:38:23.510Z,163.27
2023-01-31T17:44:23.201Z,162.52
2023-01-31T17:45:23.490Z,162.78
2023-01-31T17:46:23.061Z,162.13
2023-01-31T17:48:26.819Z,162.45
2023-01-31T17:49:22.879Z,162.47
2023-01-31T17:50:22.860Z,162.29
2023-01-31T17:51:22.778Z,162.56
2023-01-31T17:52:22.747Z,162.12
2023-01-31T17:53:22.645Z,162.54
2023-01-31T17:54:22.615Z,161.75
2023-01-31T17:55:22.830Z,162.26
2023-01-31T17:56:22.499Z,161.52
2023-01-31T17:57:22.438Z,161.99
2023-01-31T17:58:22.383Z,161.80
2023-01-31T17:59:27.210Z,160.78
2023-01-31T18:00:23.264Z,160.87
2023-01-31T18:01:22.259Z,160.95
2023-01-31T18:02:22.147Z,161.14
2023-01-31T18:03:22.113Z,160.87
2023-01-31T18:04:22.100Z,160.90
2023-01-31T18:05:30.273Z,160.90
2023-01-31T18:06:22.958Z,160.87
2023-01-31T18:07:21.883Z,160.98
2023-01-31T18:08:21.875Z,161.05
2023-01-31T18:09:21.792Z,160.80
2023-01-31T18:10:21.734Z,161.86
2023-01-31T18:11:21.697Z,160.62
2023-01-31T18:12:21.678Z,161.80
2023-01-31T18:13:21.696Z,160.08
2023-01-31T18:14:21.507Z,160.79
2023-01-31T18:15:21.823Z,160.29
2023-01-31T18:16:21.509Z,160.55
2023-01-31T18:17:21.405Z,160.96
2023-01-31T18:18:21.339Z,161.24
2023-01-31T18:19:21.249Z,160.68
2023-01-31T18:20:21.238Z,160.22
2023-01-31T18:21:21.192Z,159.58
2023-01-31T18:22:21.104Z,160.35
2023-01-31T18:23:21.104Z,159.58
2023-01-31T18:24:21.050Z,160.88
2023-01-31T18:25:21.256Z,160.20
2023-01-31T18:26:20.923Z,159.65
2023-01-31T18:27:20.827Z,159.27
2023-01-31T18:28:20.786Z,160.14
2023-01-31T18:29:20.739Z,159.92
2023-01-31T18:30:20.695Z,159.40
2023-01-31T18:31:20.722Z,159.18
2023-01-31T18:32:20.647Z,159.29
2023-01-31T18:33:20.512Z,160.26
2023-01-31T18:34:20.453Z,160.13
2023-01-31T18:35:20.692Z,158.65
2023-01-31T18:36:20.389Z,159.31
2023-01-31T18:37:20.400Z,159.37
2023-01-31T18:38:20.238Z,159.23
2023-01-31T18:39:20.222Z,159.42
2023-01-31T18:40:20.153Z,159.85
2023-01-31T18:41:20.103Z,159.07
2023-01-31T18:42:20.103Z,158.74
2023-01-31T18:43:19.987Z,159.41
2023-01-31T18:44:19.947Z,158.62
2023-01-31T18:45:20.177Z,158.83
2023-01-31T18:46:19.858Z,159.13
2023-01-31T18:47:19.772Z,158.95
2023-01-31T18:48:19.687Z,158.92
2023-01-31T18:49:19.637Z,158.42
2023-01-31T18:50:19.592Z,158.58
2023-01-31T18:51:20.601Z,158.64
2023-01-31T18:52:19.450Z,158.60
2023-01-31T18:53:19.414Z,158.90
2023-01-31T18:54:19.339Z,158.08
2023-01-31T18:55:20.362Z,158.77
2023-01-31T18:56:19.250Z,157.85
2023-01-31T18:57:19.201Z,158.13
2023-01-31T18:58:19.161Z,159.20
2023-01-31T18:59:19.044Z,158.38
2023-01-31T19:00:18.990Z,157.89
2023-01-31T19:01:18.966Z,158.26
2023-01-31T19:02:18.907Z,158.19
2023-01-31T19:03:18.804Z,158.03
2023-01-31T19:04:18.760Z,158.33
2023-01-31T19:05:19.158Z,157.62
2023-01-31T19:06:18.693Z,158.22
2023-01-31T19:07:18.624Z,158.09
2023-01-31T19:08:18.538Z,158.04
2023-01-31T19:09:18.483Z,157.96
2023-01-31T19:10:18.433Z,159.05
2023-01-31T19:11:18.358Z,158.75
2023-01-31T19:12:18.306Z,156.43
2023-01-31T19:13:18.246Z,157.32
2023-01-31T19:14:18.232Z,158.23
2023-01-31T19:15:18.123Z,157.78
2023-01-31T19:16:18.141Z,158.42
2023-01-31T19:17:18.043Z,157.77
2023-01-31T19:18:17.959Z,157.27
2023-01-31T19:19:17.929Z,157.67
2023-01-31T19:20:17.861Z,157.01
2023-01-31T19:21:17.788Z,156.79
2023-01-31T19:22:17.740Z,158.48
2023-01-31T19:23:17.745Z,157.33
2023-01-31T19:24:17.621Z,156.75
2023-01-31T19:25:17.591Z,158.60
2023-01-31T19:26:17.542Z,159.00
2023-01-31T19:27:17.527Z,156.60
2023-01-31T19:28:17.377Z,157.13
2023-01-31T19:29:17.337Z,156.78
2023-01-31T19:30:17.293Z,156.91
2023-01-31T19:31:17.365Z,156.97
2023-01-31T19:32:17.161Z,157.31
2023-01-31T19:33:17.109Z,157.63
2023-01-31T19:34:17.015Z,155.61
2023-01-31T19:35:17.039Z,157.32
2023-01-31T19:36:16.933Z,157.72
2023-01-31T19:37:16.860Z,157.85
2023-01-31T19:38:16.789Z,156.50
2023-01-31T19:39:16.725Z,157.15
2023-01-31T19:40:16.681Z,157.46
2023-01-31T19:41:16.646Z,157.07
2023-01-31T19:42:16.567Z,156.18
2023-01-31T19:43:16.497Z,156.14
2023-01-31T19:44:16.451Z,156.86
2023-01-31T19:45:18.049Z,158.38
2023-01-31T19:46:17.336Z,158.40
2023-01-31T19:47:16.292Z,158.14
2023-01-31T19:48:16.222Z,157.25
2023-01-31T19:49:16.183Z,156.82
2023-01-31T19:50:16.082Z,156.94
2023-01-31T19:51:16.127Z,158.42
2023-01-31T19:52:15.988Z,156.95
2023-01-31T19:53:15.950Z,156.10
2023-01-31T19:54:15.912Z,158.38
2023-01-31T19:55:15.799Z,158.15
2023-01-31T19:56:15.772Z,157.47
2023-01-31T19:57:15.737Z,156.73
2023-01-31T19:58:15.619Z,156.45
2023-01-31T19:59:15.600Z,156.75
2023-01-31T20:00:15.521Z,157.15
2023-01-31T20:01:15.515Z,157.36
2023-01-31T20:02:15.480Z,156.37
2023-01-31T20:03:15.347Z,155.94
2023-01-31T20:04:15.299Z,156.98
2023-01-31T20:05:15.284Z,156.34
2023-01-31T20:06:15.156Z,157.90
2023-01-31T20:07:15.128Z,156.58
2023-01-31T20:08:15.059Z,156.36
2023-01-31T20:09:14.974Z,157.49
2023-01-31T20:10:14.943Z,156.98
2023-01-31T20:11:14.854Z,155.56
2023-01-31T20:12:14.835Z,157.68
2023-01-31T20:13:14.766Z,157.44
2023-01-31T20:14:14.680Z,155.36
2023-01-31T20:15:14.635Z,157.74
2023-01-31T20:16:14.613Z,156.24
2023-01-31T20:17:14.533Z,157.73
2023-01-31T20:18:14.440Z,156.01
2023-01-31T20:19:14.336Z,156.80
2023-01-31T20:20:14.298Z,156.86
2023-01-31T20:21:14.221Z,156.83
2023-01-31T20:22:14.206Z,156.89
2023-01-31T20:23:14.110Z,157.20
2023-01-31T20:24:14.047Z,155.86
2023-01-31T20:25:13.973Z,157.22
2023-01-31T20:26:13.977Z,156.21
2023-01-31T20:27:13.879Z,156.04
2023-01-31T20:28:13.826Z,156.06
2023-01-31T20:29:13.740Z,156.03
2023-01-31T20:30:13.678Z,156.10
2023-01-31T20:31:13.678Z,156.47
2023-01-31T20:32:13.555Z,156.85
2023-01-31T20:33:13.527Z,155.87
2023-01-31T20:34:13.447Z,155.69
2023-01-31T20:35:13.358Z,156.19
2023-01-31T20:36:13.326Z,156.58
2023-01-31T20:37:13.241Z,156.45
2023-01-31T20:38:13.207Z,155.36
2023-01-31T20:39:13.128Z,155.05
2023-01-31T20:40:13.052Z,155.12
2023-01-31T20:41:12.998Z,155.45
2023-01-31T20:42:12.958Z,156.01
2023-01-31T20:43:12.910Z,155.59
2023-01-31T20:44:12.840Z,154.34
2023-01-31T20:45:12.745Z,155.35
2023-01-31T20:46:12.799Z,154.94
2023-01-31T20:47:12.623Z,156.36
2023-01-31T20:48:12.581Z,155.50
2023-01-31T20:49:12.492Z,155.76
2023-01-31T20:50:12.444Z,154.95
2023-01-31T20:51:12.377Z,156.10
2023-01-31T20:52:12.333Z,155.62
2023-01-31T20:53:12.302Z,156.89
2023-01-31T20:54:12.228Z,155.31
2023-01-31T20:55:12.155Z,154.80
2023-01-31T20:56:12.092Z,156.83
2023-01-31T20:57:12.024Z,155.27
2023-01-31T20:58:11.969Z,157.89
2023-01-31T20:59:11.916Z,158.67
2023-01-31T21:00:11.871Z,155.60
2023-01-31T21:01:11.843Z,156.33
2023-01-31T21:02:11.764Z,157.80
2023-01-31T21:03:11.722Z,155.37
2023-01-31T21:04:11.631Z,154.99
2023-01-31T21:05:11.597Z,155.69
2023-01-31T21:06:11.523Z,156.08
2023-01-31T21:07:11.446Z,156.71
2023-01-31T21:08:11.406Z,156.51
2023-01-31T21:09:11.323Z,156.63
2023-01-31T21:10:11.261Z,155.01
2023-01-31T21:11:11.248Z,157.17
2023-01-31T21:12:11.168Z,156.07
2023-01-31T21:13:11.137Z,155.36
2023-01-31T21:14:11.069Z,157.80
2023-01-31T21:15:11.025Z,157.85
2023-01-31T21:16:11.001Z,157.83
2023-01-31T21:17:10.898Z,156.56
2023-01-31T21:18:10.845Z,156.11
2023-01-31T21:19:10.787Z,156.53
2023-01-31T21:20:10.721Z,155.31
2023-01-31T21:21:10.631Z,155.99
2023-01-31T21:22:10.592Z,157.20
2023-01-31T21:23:10.557Z,157.18
2023-01-31T21:24:10.456Z,155.52
2023-01-31T21:25:10.386Z,155.53
2023-01-31T21:26:10.344Z,156.02
2023-01-31T21:27:10.314Z,156.17
2023-01-31T21:28:10.248Z,155.24
2023-01-31T21:29:10.167Z,155.69
2023-01-31T21:30:10.116Z,156.46
2023-01-31T21:31:10.186Z,156.03
2023-01-31T21:32:09.991Z,155.35
2023-01-31T21:33:09.938Z,158.15
2023-01-31T21:34:09.901Z,158.95
2023-01-31T21:35:09.828Z,155.90
2023-01-31T21:36:09.789Z,155.01
2023-01-31T21:37:09.692Z,157.29
2023-01-31T21:38:09.645Z,155.51
2023-01-31T21:39:09.634Z,158.58
2023-01-31T21:40:09.545Z,158.21
2023-01-31T21:41:09.484Z,156.44
2023-01-31T21:42:09.419Z,156.37
2023-01-31T21:43:09.346Z,155.71
2023-01-31T21:44:09.300Z,157.13
2023-01-31T21:45:09.216Z,155.66